createdAt,value
2023-04-26T00:02:04.878Z,16.60
2023-04-26T00:07:07.062Z,10.47
2023-04-26T00:12:09.659Z,13.50
2023-04-26T00:17:10.853Z,12.67
2023-04-26T00:22:12.504Z,11.37
2023-04-26T00:27:13.735Z,11.30
2023-04-26T00:32:14.996Z,13.37
2023-04-26T00:37:16.305Z,14.00
2023-04-26T00:42:18.709Z,12.63
2023-04-26T00:47:20.328Z,10.57
2023-04-26T00:52:23.341Z,13.33
2023-04-26T00:57:25.494Z,12.77
2023-04-26T01:02:27.054Z,16.17
2023-04-26T01:07:28.391Z,9.63
2023-04-26T01:12:29.746Z,9.63
2023-04-26T01:17:31.067Z,10.87
2023-04-26T01:22:33.123Z,14.60
2023-04-26T01:27:35.520Z,15.43
2023-04-26T01:32:36.781Z,15.30
2023-04-26T01:37:38.151Z,14.93
2023-04-26T01:42:39.490Z,13.30
2023-04-26T01:47:40.919Z,14.80
2023-04-26T01:52:42.349Z,13.13
2023-04-26T01:57:43.765Z,11.63
2023-04-26T02:02:45.319Z,16.83
2023-04-26T02:07:46.792Z,14.07
2023-04-26T02:12:48.106Z,10.67
2023-04-26T02:17:49.573Z,10.67
2023-04-26T02:22:51.275Z,11.57
2023-04-26T02:27:52.424Z,9.77
2023-04-26T02:32:54.530Z,13.60
2023-04-26T02:37:55.944Z,12.27
2023-04-26T02:42:57.494Z,13.33
2023-04-26T02:47:58.981Z,11.00
2023-04-26T02:53:00.946Z,9.73
2023-04-26T02:58:04.427Z,15.10
2023-04-26T03:03:06.115Z,13.27
2023-04-26T03:08:08.419Z,12.17
2023-04-26T03:13:09.647Z,13.67
2023-04-26T03:18:11.785Z,10.07
2023-04-26T03:23:13.254Z,10.63
2023-04-26T03:28:14.465Z,11.80
2023-04-26T03:33:16.977Z,11.90
2023-04-26T03:38:18.590Z,15.20
2023-04-26T03:43:20.050Z,12.53
2023-04-26T03:48:21.358Z,14.97
2023-04-26T03:53:22.624Z,13.57
2023-04-26T03:58:25.311Z,14.80
2023-04-26T04:03:27.107Z,13.43
2023-04-26T04:08:29.955Z,17.67
2023-04-26T04:13:31.541Z,14.10
2023-04-26T04:18:33.011Z,14.70
2023-04-26T04:23:34.321Z,13.70
2023-04-26T04:28:40.922Z,9.77
2023-04-26T04:33:42.444Z,12.83
2023-04-26T04:38:44.590Z,11.23
2023-04-26T04:43:47.651Z,11.63
2023-04-26T04:48:49.187Z,8.57
2023-04-26T04:53:50.977Z,17.43
2023-04-26T04:58:52.988Z,12.67
2023-04-26T05:03:56.746Z,11.00
2023-04-26T05:08:58.830Z,12.60
2023-04-26T05:14:01.365Z,17.57
2023-04-26T05:19:03.810Z,18.43
2023-04-26T05:24:05.706Z,20.33
2023-04-26T05:29:07.656Z,14.73
2023-04-26T05:34:21.188Z,19.97
2023-04-26T05:39:26.236Z,18.47
2023-04-26T05:44:27.661Z,16.73
2023-04-26T05:49:28.979Z,14.30
2023-04-26T05:54:30.350Z,16.47
2023-04-26T05:59:35.904Z,19.30
2023-04-26T06:04:37.971Z,17.03
2023-04-26T06:09:44.345Z,17.20
2023-04-26T06:14:45.637Z,14.90
2023-04-26T06:19:51.580Z,20.40
2023-04-26T06:24:52.977Z,15.50
2023-04-26T06:29:54.276Z,20.97
2023-04-26T06:34:57.863Z,15.33
2023-04-26T06:39:59.538Z,18.10
2023-04-26T06:45:01.009Z,15.77
2023-04-26T06:50:04.072Z,21.30
2023-04-26T06:55:06.380Z,13.10
2023-04-26T07:00:09.114Z,16.57
2023-04-26T07:05:10.559Z,11.30
2023-04-26T07:10:13.297Z,13.83
2023-04-26T07:15:14.572Z,13.80
2023-04-26T07:20:19.207Z,15.17
2023-04-26T07:25:20.474Z,11.80
2023-04-26T07:30:21.880Z,13.50
2023-04-26T07:35:23.280Z,11.30
2023-04-26T07:40:25.653Z,11.27
2023-04-26T07:45:27.413Z,14.77
2023-04-26T07:50:28.859Z,7.97
2023-04-26T07:55:30.465Z,8.37
2023-04-26T08:00:32.487Z,7.53
2023-04-26T08:05:34.412Z,6.40
2023-04-26T08:10:37.486Z,7.70
2023-04-26T08:15:38.960Z,7.43
2023-04-26T08:20:40.501Z,9.20
2023-04-26T08:25:41.913Z,9.83
2023-04-26T08:30:43.341Z,9.57
2023-04-26T08:35:49.061Z,11.47
2023-04-26T08:40:51.083Z,7.03
2023-04-26T08:45:52.640Z,9.87
2023-04-26T08:50:54.752Z,4.13
2023-04-26T08:55:56.564Z,12.43
2023-04-26T09:01:00.932Z,8.93
2023-04-26T09:06:05.733Z,11.20
2023-04-26T09:11:07.152Z,10.98
2023-04-26T09:16:08.721Z,10.63
2023-04-26T09:21:09.908Z,8.02
2023-04-26T09:26:21.700Z,6.53
2023-04-26T09:31:41.945Z,7.22
2023-04-26T09:37:01.159Z,6.15
2023-04-26T09:42:20.581Z,7.13
2023-04-26T09:47:22.232Z,5.45
2023-04-26T09:52:23.612Z,10.80
2023-04-26T09:57:24.875Z,4.93
2023-04-26T10:02:27.865Z,9.23
2023-04-26T10:07:29.745Z,7.00
2023-04-26T10:12:30.940Z,7.80
2023-04-26T10:17:32.389Z,9.85
2023-04-26T10:22:39.148Z,5.85
2023-04-26T10:27:46.511Z,7.40
2023-04-26T10:32:56.757Z,7.45
2023-04-26T10:38:01.150Z,6.43
2023-04-26T10:43:29.083Z,6.85
2023-04-26T10:48:31.240Z,4.05
2023-04-26T10:53:47.578Z,7.00
2023-04-26T10:59:13.684Z,5.38
2023-04-26T11:04:50.543Z,7.68
2023-04-26T11:09:51.802Z,8.77
2023-04-26T11:14:53.562Z,5.60
2023-04-26T11:19:54.728Z,8.43
2023-04-26T11:24:56.091Z,4.72
2023-04-26T11:29:57.217Z,4.93
2023-04-26T11:35:00.319Z,8.68
2023-04-26T11:40:01.499Z,6.63
2023-04-26T11:45:06.285Z,8.48
2023-04-26T11:50:09.339Z,5.32
2023-04-26T11:55:10.911Z,6.35
2023-04-26T12:00:14.023Z,7.75
2023-04-26T12:05:26.519Z,6.25
2023-04-26T12:10:31.109Z,8.20
2023-04-26T12:15:36.781Z,9.07
2023-04-26T12:20:42.025Z,6.97
2023-04-26T12:25:59.009Z,4.60
2023-04-26T12:31:00.858Z,6.28
2023-04-26T12:36:12.408Z,4.95
2023-04-26T12:41:13.524Z,7.22
2023-04-26T12:46:14.884Z,4.65
2023-04-26T12:51:16.172Z,6.57
2023-04-26T12:56:18.471Z,6.65
2023-04-26T13:01:20.132Z,8.10
2023-04-26T13:06:21.573Z,4.80
2023-04-26T13:11:22.684Z,6.18
2023-04-26T13:16:23.950Z,6.18
2023-04-26T13:21:25.616Z,4.18
2023-04-26T13:26:27.952Z,7.13
2023-04-26T13:31:29.619Z,6.80
2023-04-26T13:36:31.948Z,8.80
2023-04-26T13:41:34.371Z,10.82
2023-04-26T13:46:35.678Z,4.85
2023-04-26T13:51:36.934Z,7.82
2023-04-26T13:56:38.570Z,6.25
2023-04-26T14:01:40.299Z,5.35
2023-04-26T14:06:41.928Z,4.93
2023-04-26T14:11:44.754Z,5.53
2023-04-26T14:16:48.710Z,9.43
2023-04-26T14:21:50.103Z,7.47
2023-04-26T14:26:51.290Z,4.63
2023-04-26T14:31:52.715Z,8.40
2023-04-26T14:36:56.478Z,7.00
2023-04-26T14:41:57.735Z,11.77
2023-04-26T14:46:59.012Z,8.25
2023-04-26T14:52:00.393Z,5.05
2023-04-26T14:57:02.349Z,6.55
2023-04-26T15:02:04.229Z,6.85
2023-04-26T15:07:05.828Z,8.85
2023-04-26T15:12:07.291Z,8.23
2023-04-26T15:17:08.670Z,11.10
2023-04-26T15:22:10.130Z,7.32
2023-04-26T15:27:12.008Z,6.35
2023-04-26T15:32:13.358Z,6.95
2023-04-26T15:37:14.962Z,6.50
2023-04-26T15:42:16.233Z,6.82
2023-04-26T15:47:17.513Z,5.80
2023-04-26T15:52:18.925Z,4.88
2023-04-26T15:57:20.270Z,9.10
2023-04-26T16:02:21.579Z,7.82
2023-04-26T16:07:22.894Z,6.65
2023-04-26T16:12:24.049Z,7.47
2023-04-26T16:17:25.286Z,6.97
2023-04-26T16:22:27.309Z,11.10
2023-04-26T16:27:28.836Z,9.52
2023-04-26T16:32:30.757Z,7.22
2023-04-26T16:37:31.941Z,7.07
2023-04-26T16:42:33.262Z,4.80
2023-04-26T16:47:34.480Z,6.73
2023-04-26T16:52:35.877Z,10.47
2023-04-26T16:57:37.118Z,8.17
2023-04-26T17:02:39.694Z,7.27
2023-04-26T17:07:40.942Z,7.70
2023-04-26T17:12:42.424Z,6.37
2023-04-26T17:17:43.783Z,10.37
2023-04-26T17:22:44.959Z,10.30
2023-04-26T17:27:46.311Z,7.10
2023-04-26T17:32:48.071Z,9.43
2023-04-26T17:37:49.833Z,9.03
2023-04-26T17:42:51.347Z,7.60
2023-04-26T17:47:52.487Z,9.20
2023-04-26T17:52:53.751Z,9.20
2023-04-26T17:57:55.051Z,8.70
2023-04-26T18:02:57.084Z,7.83
2023-04-26T18:07:58.999Z,8.77
2023-04-26T18:13:01.124Z,9.27
2023-04-26T18:18:04.804Z,7.70
2023-04-26T18:23:06.210Z,8.73
2023-04-26T18:28:08.041Z,8.03
2023-04-26T18:33:09.292Z,7.40
2023-04-26T18:38:10.698Z,11.50
2023-04-26T18:43:12.053Z,8.80
2023-04-26T18:48:13.364Z,11.03
2023-04-26T18:53:14.921Z,10.13
2023-04-26T18:58:16.245Z,10.50
2023-04-26T19:03:17.797Z,7.77
2023-04-26T19:08:19.451Z,13.00
2023-04-26T19:13:21.218Z,8.83
2023-04-26T19:18:22.699Z,9.03
2023-04-26T19:23:23.871Z,8.70
2023-04-26T19:28:25.145Z,13.97
2023-04-26T19:33:27.087Z,9.53
2023-04-26T19:38:28.457Z,9.33
2023-04-26T19:43:29.915Z,10.07
2023-04-26T19:48:31.105Z,15.90
2023-04-26T19:53:34.439Z,8.37
2023-04-26T19:58:36.444Z,9.33
2023-04-26T20:03:39.890Z,11.97
2023-04-26T20:08:41.152Z,6.97
2023-04-26T20:13:43.478Z,12.50
2023-04-26T20:18:44.647Z,10.27
2023-04-26T20:23:46.280Z,10.10
2023-04-26T20:28:47.900Z,10.73
2023-04-26T20:33:49.334Z,9.63
2023-04-26T20:38:50.692Z,9.00
2023-04-26T20:43:52.373Z,15.93
2023-04-26T20:48:54.155Z,8.57
2023-04-26T20:53:55.536Z,10.27
2023-04-26T20:58:57.274Z,8.60
2023-04-26T21:03:58.901Z,8.73
2023-04-26T21:09:00.370Z,10.60
2023-04-26T21:14:01.950Z,7.50
2023-04-26T21:19:04.339Z,9.53
2023-04-26T21:24:05.912Z,10.23
2023-04-26T21:29:08.081Z,11.43
2023-04-26T21:34:09.480Z,15.13
2023-04-26T21:39:11.173Z,8.00
2023-04-26T21:44:12.836Z,10.23
2023-04-26T21:49:14.060Z,11.13
2023-04-26T21:54:15.290Z,9.60
2023-04-26T21:59:16.655Z,13.33
2023-04-26T22:04:17.958Z,12.27
2023-04-26T22:09:20.466Z,12.37
2023-04-26T22:14:21.922Z,13.00
2023-04-26T22:19:23.117Z,15.47
2023-04-26T22:24:24.517Z,13.23
2023-04-26T22:29:25.663Z,11.57
2023-04-26T22:34:27.132Z,9.73
2023-04-26T22:39:28.638Z,13.67
2023-04-26T22:44:29.952Z,13.57
2023-04-26T22:49:31.120Z,14.13
2023-04-26T22:54:32.408Z,10.67
2023-04-26T22:59:33.784Z,14.07
2023-04-26T23:04:34.961Z,9.77
2023-04-26T23:09:36.858Z,13.57
2023-04-26T23:14:38.372Z,13.53
2023-04-26T23:19:39.634Z,13.20
2023-04-26T23:24:41.057Z,17.53
2023-04-26T23:29:42.481Z,12.80
2023-04-26T23:34:43.757Z,13.47
2023-04-26T23:39:45.027Z,10.63
2023-04-26T23:44:46.535Z,10.97
2023-04-26T23:49:47.995Z,13.73
2023-04-26T23:54:49.407Z,17.77
2023-04-26T23:59:51.994Z,11.30
